Alvarado, Indiana
Current Conditions -  °F | °C
As of 2:55 AM on Friday 19 Dec 2014 (Local Time) from KANQ Reporting Station
Overcast Overcast  
Wind Chill: -7°   Ceiling: 1000
Heat Index: -3°   Visibility: 6mi
Dew Point: -4°   Wind: 7mph
Humidity: 93%   Direction: 260°W
Pressure: 30.2"   Gusts: NA
Location:  41.5557°N, 84.8806°W
Report Text: KANQ 190755Z AUTO 26006KT 6SM OVC010 M03/M04 A3020 RMK
Loading
Personal Weather Stations






























Interactive Weather Map New forecast layout! Learn more

10-Day Weather Forecast

Advertisements
Track Severe Weather on mobile